• Join FlightAware (Why Join?)
  • Login
  • US Flag 
06:16AM EDT


 

Airport Tracker/Info


-or-


 

Live Flight TrackerFlight Track Log ✈ UAL1286 ✈ 2013年 04月 23日 ✈ KORD - KLAS

Flight Track Log - Related Links

Times and Time Zones

All times are in EDT time to prevent confusion due to time zone crossing. See the UAL1286 flight status page for this flight to view local times or setup timezone preferences in your user account.

Time Position Orientation Groundspeed Altitude Reporting Facility
EDT Latitude Longitude Course Direction KTS MPH feet Rate Location/Type
09:26PM 42.0000 -87.9667 270° West 180 207 2,300  Level Chicago TRACON
09:27PM 42.0167 -88.0500 285° West 227 261 4,900 1,380 Climbing Chicago TRACON
09:28PM 41.9667 -88.3267 270° West  Level FlightAware Approximate
09:28PM 42.0333 -88.1333 285° West 252 290 5,100  Level Chicago TRACON
09:28PM 42.0342 -88.1444 276° West 243 280 5,200 2,280 Climbing Chicago Center
09:29PM 41.9667 -88.4689 270° West  Level FlightAware Approximate
09:29PM 42.0325 -88.2392 269° West 255 293 8,200  Level Chicago Center
09:30PM 41.9668 -88.6111 270° West  Level FlightAware Approximate
09:30PM 42.0356 -88.3539 272° West 259 298 12,000  Level Chicago Center
09:31PM 41.9667 -88.7534 270° West  Level FlightAware Approximate
09:31PM 42.0414 -88.4500 275° West 259 298 13,100  Level Chicago Center
09:32PM 42.0608 -88.5544 284° West 291 335 14,100 1,560 Climbing Chicago Center
09:33PM 42.0706 -88.6772 276° West 330 380 16,300 2,040 Climbing Chicago Center
09:34PM 42.0783 -88.8042 275° West 342 394 18,400 2,340 Climbing Chicago Center
09:35PM 42.0761 -88.9519 269° West 349 402 21,200 2,340 Climbing Chicago Center
09:36PM 42.0778 -89.0833 271° West 350 403 23,300 1,740 Climbing Chicago Center
09:37PM 42.0786 -89.2211 271° West 364 419 24,900 1,500 Climbing Chicago Center
09:38PM 42.0806 -89.3628 271° West 375 432 26,400 1,500 Climbing Chicago Center
09:39PM 42.0831 -89.5300 271° West 385 443 28,000 1,740 Climbing Chicago Center
09:40PM 42.0858 -89.6781 271° West 393 452 30,000 1,980 Climbing Chicago Center
09:41PM 42.0881 -89.8156 271° West 372 428 32,100 1,800 Climbing Chicago Center
09:42PM 42.0908 -89.9469 272° West 356 410 33,800 1,500 Climbing Chicago Center
09:43PM 42.1100 -90.0753 281° West 352 405 35,200 1,020 Climbing Chicago Center
09:44PM 42.1286 -90.1986 282° West 342 394 36,000 360 Climbing Chicago Center
09:45PM 42.1447 -90.3253 280° West 344 396 36,000  Level Chicago Center
09:46PM 42.1656 -90.4794 280° West 350 403 36,000  Level Chicago Center
09:47PM 42.1831 -90.6069 281° West 350 403 36,000  Level Chicago Center
09:48PM 42.2006 -90.7375 280° West 355 409 36,000  Level Chicago Center
09:49PM 42.2175 -90.8667 280° West 352 405 36,000  Level Chicago Center
09:51PM 42.2344 -90.9956 280° West 351 404 36,000  Level Chicago Center
09:52PM 42.2514 -91.1225 280° West 348 400 36,000  Level Chicago Center
09:53PM 42.2675 -91.2508 280° West 348 400 36,000  Level Chicago Center
09:54PM 42.2850 -91.4050 279° West 347 399 36,000  Level Chicago Center
09:55PM 42.3014 -91.5300 280° West 344 396 36,000  Level Chicago Center
09:56PM 42.3167 -91.6556 279° West 339 390 36,000  Level Chicago Center
09:57PM 42.3322 -91.7819 279° West 342 394 36,000  Level Chicago Center
09:58PM 42.3481 -91.9067 280° West 340 391 36,000  Level Chicago Center
09:59PM 42.3625 -92.0325 279° West 340 391 36,000  Level Chicago Center
09:59PM 42.3750 -92.1344 279° West 340 391 36,000  Level Minneapolis Center
10:01PM 42.3900 -92.2631 279° West 343 395 36,000  Level Minneapolis Center
10:02PM 42.4053 -92.3892 279° West 344 396 36,000  Level Minneapolis Center
10:03PM 42.4197 -92.5181 279° West 345 397 36,000  Level Minneapolis Center
10:04PM 42.4375 -92.6731 279° West 350 403 36,000  Level Minneapolis Center
10:05PM 42.4528 -92.8031 279° West 350 403 36,000  Level Minneapolis Center
10:06PM 42.4669 -92.9314 279° West 347 399 36,000  Level Minneapolis Center
10:07PM 42.4814 -93.0622 279° West 353 406 36,000  Level Minneapolis Center
10:08PM 42.4953 -93.1928 278° West 354 407 36,000  Level Minneapolis Center
10:09PM 42.5092 -93.3219 278° West 349 402 36,000  Level Minneapolis Center
10:10PM 42.5236 -93.4528 279° West 351 404 36,000  Level Minneapolis Center
10:11PM 42.5417 -93.6075 279° West 349 402 36,000  Level Minneapolis Center
10:12PM 42.5547 -93.7394 278° West 354 407 36,000  Level Minneapolis Center
10:13PM 42.5664 -93.8450 279° West 356 410 36,000  Level Minneapolis Center
10:14PM 42.5836 -94.0042 278° West 358 412 36,000  Level Minneapolis Center
10:15PM 42.5942 -94.1086 278° West 356 410 36,000  Level Minneapolis Center
10:16PM 42.6092 -94.2664 277° West 354 407 36,000  Level Minneapolis Center
10:17PM 42.6106 -94.3975 271° West 352 405 36,000  Level Minneapolis Center
10:18PM 42.6092 -94.5297 269° West 352 405 36,000  Level Minneapolis Center
10:19PM 42.6056 -94.6786 268° West 348 400 36,000  Level Minneapolis Center
10:20PM 42.6044 -94.7864 269° West 352 405 36,000  Level Minneapolis Center
10:21PM 42.6011 -94.9500 268° West 359 413 36,000  Level Minneapolis Center
10:22PM 42.5983 -95.0883 268° West 365 420 36,000  Level Minneapolis Center
10:23PM 42.5953 -95.2272 268° West 368 423 36,000  Level Minneapolis Center
10:24PM 42.5931 -95.3697 269° West 376 433 36,000  Level Minneapolis Center
10:25PM 42.5889 -95.5103 268° West 375 432 36,000  Level Minneapolis Center
10:26PM 42.5850 -95.6783 268° West 374 430 36,000  Level Minneapolis Center
10:27PM 42.5814 -95.8161 268° West 369 425 36,000  Level Minneapolis Center
10:28PM 42.5781 -95.9564 268° West 373 429 36,000  Level Minneapolis Center
10:29PM 42.5736 -96.0958 268° West 372 428 36,000  Level Minneapolis Center
10:30PM 42.5700 -96.2364 268° West 374 430 36,000  Level Minneapolis Center
10:31PM 42.5664 -96.3489 268° West 374 430 36,000  Level Minneapolis Center
10:32PM 42.5614 -96.5178 268° West 377 434 36,000  Level Minneapolis Center
10:33PM 42.5564 -96.6622 267° West 383 441 36,000  Level Minneapolis Center
10:34PM 42.5519 -96.8067 268° West 385 443 36,000  Level Minneapolis Center
10:35PM 42.5456 -96.9797 267° West 385 443 36,000  Level Minneapolis Center
10:36PM 42.5403 -97.1258 267° West 388 447 36,000  Level Minneapolis Center
10:37PM 42.5347 -97.2711 267° West 387 445 36,000  Level Minneapolis Center
10:38PM 42.5281 -97.4164 266° West 387 445 36,000  Level Minneapolis Center
10:39PM 42.5231 -97.5622 267° West 388 447 36,000  Level Minneapolis Center
10:40PM 42.5161 -97.7078 266° West 389 448 36,000  Level Minneapolis Center
10:41PM 42.5097 -97.8469 266° West 383 441 36,000  Level Minneapolis Center
10:42PM 42.5039 -97.9911 267° West 383 441 36,000  Level Minneapolis Center
10:43PM 42.4964 -98.1639 267° West 383 441 36,000  Level Minneapolis Center
10:44PM 42.4892 -98.3078 266° West 383 441 36,000  Level Minneapolis Center
10:45PM 42.4828 -98.4514 267° West 383 441 36,000  Level Minneapolis Center
10:46PM 42.4742 -98.5958 265° West 385 443 36,000  Level Minneapolis Center
10:47PM 42.4658 -98.7433 266° West 391 450 36,000  Level Minneapolis Center
10:48PM 42.4506 -98.8892 262° West 392 451 36,000  Level Minneapolis Center
10:49PM 42.4361 -99.0375 263° West 397 457 36,000  Level Minneapolis Center
10:51PM 42.4208 -99.1844 262° West 396 456 36,000  Level Minneapolis Center
10:52PM 42.4050 -99.3308 262° West 395 455 36,000  Level Minneapolis Center
10:52PM 42.3986 -99.3894 262° West 395 455 36,000  Level Denver Center
10:53PM 42.3833 -99.5386 262° West 398 458 36,000 60 Level Denver Center
10:54PM 42.3664 -99.6878 261° West 393 452 36,200 540 Climbing Denver Center
10:55PM 42.3494 -99.8514 262° West 393 452 37,100 840 Climbing Denver Center
10:56PM 42.3336 -99.9911 261° West 395 455 38,000 420 Climbing Denver Center
10:57PM 42.3161 -100.1533 262° West 391 450 38,000  Level Denver Center
10:58PM 42.3003 -100.2897 261° West 386 444 38,000  Level Denver Center
10:59PM 42.2875 -100.4067 262° West 391 450 38,000  Level Denver Center
11:00PM 42.2661 -100.5919 261° West 391 450 38,000  Level Denver Center
11:01PM 42.2500 -100.7297 261° West 391 450 38,000  Level Denver Center
11:02PM 42.2308 -100.8931 261° West 394 453 38,000  Level Denver Center
11:03PM 42.2144 -101.0322 261° West 395 455 38,000  Level Denver Center
11:04PM 42.1981 -101.1717 261° West 395 455 38,000  Level Denver Center
11:05PM 42.1783 -101.3356 261° West 398 458 38,000  Level Denver Center
11:06PM 42.1606 -101.4744 260° West 394 453 38,000  Level Denver Center
11:07PM 42.1436 -101.6128 261° West 391 450 38,000  Level Denver Center
11:08PM 42.1239 -101.7744 261° West 392 451 38,000  Level Denver Center
11:09PM 42.1061 -101.9128 260° West 393 452 38,000  Level Denver Center
11:10PM 42.0836 -102.0758 260° West 397 457 38,000  Level Denver Center
11:11PM 42.0653 -102.2203 260° West 394 453 38,000  Level Denver Center
11:12PM 42.0472 -102.3592 260° West 395 455 38,000  Level Denver Center
11:13PM 42.0283 -102.4994 260° West 398 458 38,000  Level Denver Center
11:14PM 42.0064 -102.6633 260° West 399 459 38,000  Level Denver Center
11:15PM 41.9881 -102.8019 260° West 395 455 38,000  Level Denver Center
11:16PM 41.9656 -102.9658 260° West 398 458 38,000  Level Denver Center
11:17PM 41.9461 -103.1053 259° West 398 458 38,000  Level Denver Center
11:18PM 41.9264 -103.2461 259° West 400 460 38,000  Level Denver Center
11:19PM 41.9036 -103.4097 259° West 399 459 38,000  Level Denver Center
11:20PM 41.8700 -103.5444 252° West 399 459 38,000  Level Denver Center
11:21PM 41.8206 -103.6728 243° Southwest 402 463 38,000  Level Denver Center
11:22PM 41.7636 -103.8214 243° Southwest 401 461 38,000  Level Denver Center
11:23PM 41.7133 -103.9489 242° Southwest 402 463 38,000  Level Denver Center
11:24PM 41.6639 -104.0769 243° Southwest 404 465 38,000  Level Denver Center
11:26PM 41.6056 -104.2278 243° Southwest 406 467 38,000  Level Denver Center
11:27PM 41.5556 -104.3564 243° Southwest 407 468 38,000  Level Denver Center
11:28PM 41.5044 -104.4864 242° Southwest 411 473 38,000  Level Denver Center
11:29PM 41.4444 -104.6364 242° Southwest 410 472 38,000  Level Denver Center
11:30PM 41.3936 -104.7669 243° Southwest 413 475 38,000  Level Denver Center
11:31PM 41.3422 -104.8967 242° Southwest 414 476 38,000  Level Denver Center
11:32PM 41.2814 -105.0456 242° Southwest 411 473 38,000  Level Denver Center
11:33PM 41.2303 -105.1764 243° Southwest 414 476 38,000  Level Denver Center
11:34PM 41.1772 -105.3053 241° Southwest 415 478 38,000  Level Denver Center
11:35PM 41.1164 -105.4553 242° Southwest 415 478 38,000  Level Denver Center
11:36PM 41.0631 -105.5839 241° Southwest 415 478 38,000  Level Denver Center
11:37PM 41.0078 -105.7211 242° Southwest 418 481 38,000  Level Denver Center
11:38PM 40.9508 -105.8581 241° Southwest 422 486 38,000  Level Denver Center
11:39PM 40.8944 -105.9936 241° Southwest 420 483 38,000  Level Denver Center
11:40PM 40.8392 -106.1253 241° Southwest 411 473 38,000  Level Denver Center
11:41PM 40.7822 -106.2650 242° Southwest 403 464 38,000  Level Denver Center
11:42PM 40.7258 -106.3944 240° Southwest 403 464 38,000  Level Denver Center
11:43PM 40.6781 -106.5081 241° Southwest 405 466 38,000  Level Denver Center
11:44PM 40.6242 -106.6386 241° Southwest 405 466 38,000  Level Denver Center
11:45PM 40.5681 -106.7681 240° Southwest 407 468 38,000  Level Denver Center
11:46PM 40.5125 -106.8992 241° Southwest 409 471 38,000  Level Denver Center
11:47PM 40.4431 -107.0597 240° Southwest 412 474 38,000  Level Denver Center
11:48PM 40.3903 -107.1856 241° Southwest 411 473 38,000  Level Denver Center
11:49PM 40.3358 -107.3100 240° Southwest 411 473 38,000  Level Denver Center
11:50PM 40.2736 -107.4550 241° Southwest 410 472 38,000  Level Denver Center
11:51PM 40.2203 -107.5783 241° Southwest 407 468 38,000  Level Denver Center
11:52PM 40.1658 -107.7011 240° Southwest 408 470 38,000  Level Denver Center
11:53PM 40.1017 -107.8464 240° Southwest 412 474 38,000  Level Denver Center
11:54PM 40.0464 -107.9689 240° Southwest 410 472 38,000  Level Denver Center
11:55PM 39.9842 -108.0883 236° Southwest 414 476 38,000  Level Denver Center
11:56PM 39.9100 -108.2314 236° Southwest 429 494 38,000  Level Denver Center
11:57PM 39.8519 -108.3494 237° Southwest 399 459 38,000  Level Denver Center
11:58PM 39.7883 -108.4697 235° Southwest 418 481 38,000  Level Denver Center
11:59PM 39.7175 -108.6081 236° Southwest 412 474 38,000  Level Denver Center
12:00AM 39.6517 -108.7347 236° Southwest 416 479 38,000  Level Denver Center
12:01AM 39.5889 -108.8558 236° Southwest 414 476 38,000  Level Denver Center
12:02AM 39.5269 -108.9731 236° Southwest 412 474 38,000  Level Denver Center
12:03AM 39.4544 -109.1100 236° Southwest 411 473 38,000  Level Denver Center
12:04AM 39.3925 -109.2278 236° Southwest 412 474 38,000  Level Denver Center
12:05AM 39.3314 -109.3461 236° Southwest 413 475 38,000  Level Salt Lake Center
12:06AM 39.2694 -109.4644 236° Southwest 415 478 38,000  Level Salt Lake Center
12:07AM 39.1950 -109.6014 235° Southwest 417 480 38,000  Level Salt Lake Center
12:08AM 39.1331 -109.7194 236° Southwest 417 480 38,000  Level Salt Lake Center
12:09AM 39.0697 -109.8364 235° Southwest 416 479 38,000  Level Salt Lake Center
12:10AM 38.9947 -109.9719 235° Southwest 415 478 38,000  Level Salt Lake Center
12:11AM 38.9328 -110.0914 236° Southwest 417 480 38,000  Level Salt Lake Center
12:12AM 38.8608 -110.2258 236° Southwest 411 473 38,000  Level Denver Center
12:13AM 38.7961 -110.3369 233° Southwest 406 467 38,000  Level Denver Center
12:14AM 38.7350 -110.4497 235° Southwest 404 465 38,000  Level Denver Center
12:15AM 38.6633 -110.5797 235° Southwest 399 459 38,000  Level Denver Center
12:16AM 38.6028 -110.6906 235° Southwest 398 458 38,000  Level Denver Center
12:17AM 38.5431 -110.8028 236° Southwest 398 458 38,000  Level Salt Lake Center
12:18AM 38.4686 -110.9325 234° Southwest 396 456 38,000  Level Salt Lake Center
12:19AM 38.4067 -111.0472 235° Southwest 395 455 38,000  Level Salt Lake Center
12:20AM 38.3422 -111.1614 234° Southwest 396 456 38,000 -420 Level Salt Lake Center
12:21AM 38.2778 -111.2767 235° Southwest 399 459 37,200 -900 Descending Salt Lake Center
12:22AM 38.2158 -111.3875 235° Southwest 386 444 36,200 -1,020 Descending Salt Lake Center
12:23AM 38.1528 -111.4978 234° Southwest 387 445 35,200 -960 Descending Salt Lake Center
12:24AM 38.0883 -111.6103 234° Southwest 392 451 34,300 -960 Descending Salt Lake Center
12:25AM 38.0214 -111.7228 233° Southwest 398 458 33,300 -960 Descending Salt Lake Center
12:26AM 37.9556 -111.8394 234° Southwest 404 465 32,400 -660 Descending Salt Lake Center
12:27AM 37.8889 -111.9567 234° Southwest 409 471 32,000 -240 Descending Salt Lake Center
12:28AM 37.8225 -112.0719 234° Southwest 407 468 32,000  Level Salt Lake Center
12:29AM 37.7561 -112.1867 234° Southwest 406 467 32,000  Level Salt Lake Center
12:30AM 37.6903 -112.3025 234° Southwest 405 466 32,000  Level Salt Lake Center
12:31AM 37.6208 -112.4156 232° Southwest 406 467 32,000  Level Salt Lake Center
12:32AM 37.5497 -112.5303 232° Southwest 411 473 32,000  Level Salt Lake Center
12:33AM 37.4789 -112.6475 233° Southwest 414 476 32,000  Level Salt Lake Center
12:34AM 37.4069 -112.7639 232° Southwest 415 478 32,000  Level Salt Lake Center
12:35AM 37.3489 -112.8564 232° Southwest 414 476 32,000  Level Los Angeles Center
12:36AM 37.3353 -112.8794 233° Southwest 414 476 32,000  Level Salt Lake Center
12:37AM 37.2644 -112.9931 232° Southwest 412 474 32,000  Level Salt Lake Center
12:38AM 37.1794 -113.1294 232° Southwest 412 474 32,000  Level Salt Lake Center
12:39AM 37.1092 -113.2439 232° Southwest 413 475 32,000  Level Salt Lake Center
12:39AM 37.0694 -113.3147 235° Southwest 414 476 32,000  Level Los Angeles Center
12:40AM 37.0036 -113.4314 235° Southwest 412 474 32,000 -300 Level Los Angeles Center
12:41AM 36.9375 -113.5481 235° Southwest 412 474 31,400 -1,680 Descending Los Angeles Center
12:42AM 36.8714 -113.6636 234° Southwest 411 473 28,700 -2,580 Descending Los Angeles Center
12:43AM 36.8061 -113.7750 234° Southwest 403 464 26,200 -2,400 Descending Los Angeles Center
12:44AM 36.7450 -113.8842 235° Southwest 391 450 23,800 -2,340 Descending Los Angeles Center
12:45AM 36.6831 -113.9886 234° Southwest 381 438 21,500 -2,280 Descending Los Angeles Center
12:46AM 36.6233 -114.0881 233° Southwest 365 420 19,200 -2,460 Descending Los Angeles Center
12:47AM 36.5531 -114.2097 234° Southwest 362 417 16,600 -2,520 Descending Los Angeles Center
12:48AM 36.5369 -114.2383 235° Southwest 361 415 16,000 -2,280 Descending Los Angeles Center
12:48AM 36.5039 -114.3033 238° Southwest 354 407 14,400 -1,980 Descending Los Angeles Center
12:49AM 36.4442 -114.4042 234° Southwest 337 388 12,600 -1,200 Descending Los Angeles Center
12:50AM 36.3972 -114.4733 230° Southwest 313 360 12,000 -1,080 Descending Los Angeles Center
12:51AM 36.2992 -114.4883 187° South 300 345 10,400 -1,620 Descending Los Angeles Center
12:52AM 36.2175 -114.4967 185° South 296 341 8,800 -1,200 Descending Los Angeles Center
12:53AM 36.1694 -114.5728 232° Southwest 284 327 8,000 -420 Descending Los Angeles Center
12:54AM 36.1236 -114.6444 232° Southwest 274 315 8,000 -300 Level Los Angeles Center
12:56AM 36.0831 -114.7094 232° Southwest 257 296 7,500 -540 Descending Los Angeles Center
12:57AM 36.0736 -114.7900 262° West 250 288 7,000 -720 Descending Los Angeles Center
12:58AM 36.0736 -114.8664 270° West 237 273 6,100 -960 Descending Los Angeles Center
12:59AM 36.0736 -114.9353 270° West 219 252 5,100 -1,080 Descending Los Angeles Center
01:00AM 36.0739 -114.9992 270° West 203 234 4,000 -1,140 Descending Los Angeles Center